Time;durP1;ratioP1;P1;durP2;ratioP2;P2;SDS_P1;SDS_P2;PMS_P1;PMS_P2;Temp;Humidity;BMP_temperature;BMP_pressure;BME280_temperature;BME280_humidity;BME280_pressure;Samples;Min_cycle;Max_cycle;Signal;HPM_P1;HPM_P2
2022/10/31 00:02:11;;;;;;;11.30;6.37;;;;;;;13.93;70.13;95161.13;5031899;28;20685;-81
2022/10/31 00:04:38;;;;;;;12.03;5.50;;;;;;;14.06;69.61;95158.28;5026511;28;20673;-80
2022/10/31 00:07:04;;;;;;;13.30;5.70;;;;;;;14.05;69.25;95146.22;5031962;28;20191;-80
2022/10/31 00:09:33;;;;;;;7.93;5.50;;;;;;;14.18;68.73;95160.91;5031868;28;20195;-79
2022/10/31 00:11:59;;;;;;;11.50;5.00;;;;;;;14.21;68.79;95156.03;5031790;28;20194;-79
2022/10/31 00:14:26;;;;;;;10.40;5.10;;;;;;;14.28;68.23;95153.31;5031968;28;20565;-79
2022/10/31 00:16:53;;;;;;;12.97;5.70;;;;;;;14.30;68.49;95151.25;5032184;28;20270;-79
2022/10/31 00:19:20;;;;;;;10.17;5.80;;;;;;;14.35;67.97;95163.66;5031868;28;20197;-78
2022/10/31 00:21:47;;;;;;;9.63;5.20;;;;;;;14.39;67.61;95157.75;5031761;28;20195;-79
2022/10/31 00:24:14;;;;;;;11.90;5.17;;;;;;;14.38;67.72;95147.50;5031315;28;20256;-78
2022/10/31 00:26:42;;;;;;;9.30;5.00;;;;;;;14.48;67.46;95150.34;5031681;28;20202;-79
2022/10/31 00:29:09;;;;;;;9.33;5.37;;;;;;;14.43;67.79;95150.25;5031713;28;20187;-78
2022/10/31 00:31:35;;;;;;;11.60;5.70;;;;;;;14.37;67.96;95146.72;5031807;28;20275;-78
2022/10/31 00:34:03;;;;;;;10.90;5.37;;;;;;;14.00;70.14;95147.94;5031966;28;20195;-80
2022/10/31 00:36:30;;;;;;;9.20;6.00;;;;;;;13.63;71.83;95149.94;5031683;28;20186;-80
2022/10/31 00:38:58;;;;;;;10.03;5.87;;;;;;;13.44;72.98;95138.78;5032276;28;20649;-79
2022/10/31 00:41:25;;;;;;;11.13;5.80;;;;;;;13.53;72.46;95129.56;5031491;28;20195;-83
2022/10/31 00:43:53;;;;;;;8.30;5.50;;;;;;;13.68;72.92;95144.81;5031808;28;20226;-80
2022/10/31 00:46:20;;;;;;;14.53;6.20;;;;;;;13.75;72.93;95145.53;5029796;28;20187;-78
2022/10/31 00:48:47;;;;;;;10.37;5.73;;;;;;;13.80;72.61;95132.59;5032045;28;20195;-79
2022/10/31 00:51:14;;;;;;;10.03;5.87;;;;;;;13.91;72.24;95131.78;5032177;28;20187;-79
2022/10/31 00:53:40;;;;;;;12.73;5.80;;;;;;;14.01;71.55;95137.28;5032263;28;20198;-80
2022/10/31 00:56:07;;;;;;;9.23;5.33;;;;;;;13.81;72.00;95139.41;5031967;28;20264;-81
2022/10/31 00:58:34;;;;;;;13.67;5.40;;;;;;;13.35;73.29;95134.88;5030855;28;20215;-80
2022/10/31 01:01:03;;;;;;;10.63;5.37;;;;;;;12.84;76.07;95135.31;5032113;28;20549;-80
2022/10/31 01:03:32;;;;;;;12.63;5.17;;;;;;;12.82;76.71;95142.59;5031029;28;20198;-79
2022/10/31 01:06:00;;;;;;;13.07;5.33;;;;;;;12.87;76.44;95140.09;5029305;28;20202;-81
2022/10/31 01:08:28;;;;;;;12.57;4.77;;;;;;;12.96;76.28;95146.63;5032131;28;20210;-80
2022/10/31 01:11:03;;;;;;;8.30;4.43;;;;;;;13.11;76.35;95145.47;5031750;28;20218;-80
2022/10/31 01:13:30;;;;;;;7.87;5.00;;;;;;;13.19;75.58;95143.34;5022569;28;20198;-80
2022/10/31 01:15:58;;;;;;;7.27;4.70;;;;;;;13.33;75.24;95149.97;5032208;28;20210;-81
2022/10/31 01:18:27;;;;;;;8.33;4.70;;;;;;;13.46;74.88;95147.19;5031726;28;20210;-80
2022/10/31 01:21:05;;;;;;;8.23;4.70;;;;;;;13.45;75.44;95150.00;5035970;28;20287;-79
2022/10/31 01:23:32;;;;;;;7.83;4.97;;;;;;;13.33;75.27;95155.19;5035944;28;20194;-80
2022/10/31 01:26:07;;;;;;;10.73;4.67;;;;;;;13.09;76.77;95153.53;5033369;28;20199;-79
2022/10/31 01:28:34;;;;;;;8.60;5.20;;;;;;;12.97;77.69;95156.03;5035775;28;20194;-81
2022/10/31 01:31:02;;;;;;;8.67;5.27;;;;;;;13.03;77.97;95151.75;5035541;28;20797;-82
2022/10/31 01:33:30;;;;;;;13.13;5.63;;;;;;;13.11;77.63;95153.28;5035852;28;20210;-80
2022/10/31 01:35:57;;;;;;;7.43;5.07;;;;;;;13.28;77.32;95147.22;5035817;28;20211;-79
2022/10/31 01:38:24;;;;;;;9.07;5.10;;;;;;;13.41;77.50;95149.66;5035786;28;20245;-79
2022/10/31 01:40:51;;;;;;;8.23;5.37;;;;;;;13.49;76.68;95148.53;5035519;28;20205;-78
2022/10/31 01:43:18;;;;;;;8.67;5.53;;;;;;;13.69;76.42;95158.69;5035095;28;20740;-79
2022/10/31 01:45:51;;;;;;;10.33;5.57;;;;;;;13.77;76.05;95161.78;5035335;28;20198;-79
2022/10/31 01:48:22;;;;;;;8.30;5.33;;;;;;;13.88;75.80;95165.44;5035103;28;20187;-80
2022/10/31 01:50:54;;;;;;;10.17;5.50;;;;;;;13.95;75.59;95171.34;5035533;28;20183;-80
2022/10/31 01:53:21;;;;;;;8.67;5.63;;;;;;;13.91;75.16;95149.31;5035011;28;20249;-79
2022/10/31 01:55:48;;;;;;;10.43;5.53;;;;;;;13.72;76.78;95160.84;5035232;28;20199;-81
2022/10/31 01:58:19;;;;;;;13.33;6.00;;;;;;;13.60;76.97;95163.44;5034815;28;20250;-81
2022/10/31 02:00:49;;;;;;;9.90;5.97;;;;;;;13.53;78.19;95147.84;5034437;28;20283;-80
2022/10/31 02:03:17;;;;;;;13.43;6.43;;;;;;;13.45;78.43;95147.38;5034576;28;20680;-81
2022/10/31 02:05:44;;;;;;;11.50;6.27;;;;;;;13.41;78.89;95152.28;5034598;28;20814;-81
2022/10/31 02:08:17;;;;;;;11.47;6.47;;;;;;;13.53;78.71;95157.53;5035050;28;20670;-80
2022/10/31 02:10:44;;;;;;;14.13;6.50;;;;;;;13.65;78.45;95155.72;5031603;28;20198;-82
2022/10/31 02:13:13;;;;;;;12.67;6.23;;;;;;;13.81;77.96;95149.06;5031925;28;20293;-80
2022/10/31 02:15:41;;;;;;;10.73;6.17;;;;;;;13.99;77.36;95151.59;5032168;28;20195;-80
2022/10/31 02:18:08;;;;;;;13.10;6.70;;;;;;;14.01;77.67;95145.09;5034737;28;20207;-81
2022/10/31 02:20:43;;;;;;;11.77;6.40;;;;;;;14.11;76.89;95152.41;5034383;28;20191;-80
2022/10/31 02:23:31;;;;;;;12.33;6.10;;;;;;;14.25;76.34;95156.38;5033231;28;20190;-80
2022/10/31 02:26:18;;;;;;;10.03;6.90;;;;;;;14.33;76.31;95163.91;5031638;28;20195;-81
2022/10/31 02:29:06;;;;;;;13.27;6.80;;;;;;;14.37;75.67;95162.41;5034406;28;20727;-80
2022/10/31 02:31:40;;;;;;;10.93;6.43;;;;;;;14.37;76.34;95165.00;5033276;28;20726;-80
2022/10/31 02:34:16;;;;;;;11.67;7.23;;;;;;;14.40;75.66;95161.94;5034975;28;20186;-80
2022/10/31 02:36:53;;;;;;;12.47;6.60;;;;;;;14.48;75.43;95182.53;5034641;28;20191;-79
2022/10/31 02:39:25;;;;;;;14.77;7.20;;;;;;;14.46;75.60;95160.25;5031535;28;20570;-81
2022/10/31 02:42:03;;;;;;;11.73;7.43;;;;;;;14.63;74.98;95179.47;5031203;28;20717;-80
2022/10/31 02:44:38;;;;;;;12.07;6.97;;;;;;;14.65;75.02;95177.41;5033632;28;20218;-80
2022/10/31 02:47:09;;;;;;;14.90;6.90;;;;;;;14.69;75.07;95188.97;5029452;28;20705;-80
2022/10/31 02:49:41;;;;;;;11.83;6.73;;;;;;;14.55;76.06;95188.44;5034115;28;20188;-79
2022/10/31 02:52:17;;;;;;;11.60;6.70;;;;;;;14.22;76.68;95177.75;5033847;28;20630;-79
2022/10/31 02:54:45;;;;;;;11.90;7.50;;;;;;;13.60;80.59;95177.31;5029278;28;20194;-81
2022/10/31 02:57:13;;;;;;;11.27;7.23;;;;;;;13.56;81.04;95180.59;5033835;28;20195;-80
2022/10/31 02:59:45;;;;;;;12.47;6.60;;;;;;;13.54;80.98;95190.44;5033869;28;20223;-82
2022/10/31 03:02:32;;;;;;;11.40;7.17;;;;;;;13.58;81.45;95183.78;5033973;28;20199;-80
2022/10/31 03:05:18;;;;;;;16.60;6.67;;;;;;;13.71;81.47;95190.63;5030503;28;20198;-77
2022/10/31 03:07:55;;;;;;;18.20;7.00;;;;;;;13.81;81.15;95193.47;5031573;28;20623;-79
2022/10/31 03:10:34;;;;;;;12.57;7.20;;;;;;;14.01;80.68;95194.75;5032986;28;20186;-79
2022/10/31 03:13:07;;;;;;;13.10;6.60;;;;;;;14.15;79.96;95195.34;5033348;28;20245;-79
2022/10/31 03:15:38;;;;;;;11.43;6.70;;;;;;;14.26;78.79;95197.16;5033669;28;20191;-80
2022/10/31 03:18:10;;;;;;;13.20;7.53;;;;;;;14.35;79.01;95203.69;5033458;28;20193;-80
2022/10/31 03:20:39;;;;;;;11.03;7.57;;;;;;;14.27;79.21;95190.13;5033250;28;20666;-80
2022/10/31 03:23:09;;;;;;;13.13;7.47;;;;;;;13.81;80.98;95194.28;5033199;28;20187;-81
2022/10/31 03:25:38;;;;;;;12.63;7.17;;;;;;;13.51;82.34;95186.47;5033020;28;20191;-80
2022/10/31 03:28:07;;;;;;;16.27;7.63;;;;;;;13.44;82.31;95188.38;5033780;28;20578;-82
2022/10/31 03:30:38;;;;;;;16.67;7.30;;;;;;;13.54;82.53;95191.25;5033970;28;20260;-80
2022/10/31 03:33:11;;;;;;;14.13;7.40;;;;;;;13.56;82.69;95198.88;5033969;28;20187;-80
2022/10/31 03:35:43;;;;;;;13.30;7.27;;;;;;;13.54;82.35;95193.84;5033705;28;20194;-81
2022/10/31 03:38:10;;;;;;;11.20;7.27;;;;;;;13.71;82.16;95208.91;5033135;28;20207;-82
2022/10/31 03:40:39;;;;;;;13.93;7.67;;;;;;;13.67;81.34;95190.28;5032968;28;20199;-81
2022/10/31 03:43:10;;;;;;;13.87;7.67;;;;;;;13.73;81.07;95206.88;5029428;28;20210;-80
2022/10/31 03:45:42;;;;;;;14.73;7.80;;;;;;;13.53;81.25;95214.97;5032900;28;20208;-81
2022/10/31 03:48:11;;;;;;;12.00;7.77;;;;;;;12.48;85.55;95195.31;5032648;28;20230;-80
2022/10/31 03:50:44;;;;;;;15.43;8.70;;;;;;;11.96;89.54;95191.38;5033005;28;20202;-81
2022/10/31 03:53:16;;;;;;;13.27;8.43;;;;;;;11.98;89.38;95202.38;5033293;28;20187;-80
2022/10/31 03:55:51;;;;;;;13.50;8.60;;;;;;;12.16;90.15;95217.25;5027889;28;20195;-82
2022/10/31 03:58:22;;;;;;;16.60;9.00;;;;;;;12.23;89.26;95208.41;5032806;28;20189;-81
2022/10/31 04:00:51;;;;;;;17.80;9.07;;;;;;;12.43;88.27;95221.25;5032972;28;20207;-83
2022/10/31 04:03:24;;;;;;;17.10;9.30;;;;;;;12.41;87.07;95205.81;5032448;28;20193;-81
2022/10/31 04:05:54;;;;;;;16.07;9.30;;;;;;;12.61;86.47;95226.47;5032724;28;20194;-82
2022/10/31 04:08:25;;;;;;;13.90;8.67;;;;;;;12.78;86.27;95229.31;5032499;28;20726;-81
2022/10/31 04:10:54;;;;;;;17.93;9.70;;;;;;;12.81;86.04;95234.09;5032304;28;20202;-81
2022/10/31 04:13:26;;;;;;;13.53;8.83;;;;;;;12.85;85.76;95220.41;5032422;28;20198;-80
2022/10/31 04:15:55;;;;;;;18.87;10.63;;;;;;;12.97;84.88;95236.13;5032108;28;20190;-80
2022/10/31 04:18:25;;;;;;;30.23;11.57;;;;;;;12.93;84.59;95240.19;5029607;28;20543;-80
2022/10/31 04:21:01;;;;;;;21.67;12.90;;;;;;;12.87;84.41;95231.41;5032137;28;20611;-81
2022/10/31 04:23:29;;;;;;;21.53;12.50;;;;;;;12.46;86.97;95232.06;5032035;28;20240;-82
2022/10/31 04:25:56;;;;;;;23.13;12.20;;;;;;;12.07;89.36;95224.56;5031835;28;20218;-82
2022/10/31 04:28:23;;;;;;;21.13;12.37;;;;;;;11.99;90.19;95214.41;5031731;28;20194;-81
2022/10/31 04:30:50;;;;;;;19.57;11.83;;;;;;;12.20;89.91;95232.28;5032009;28;20199;-81
2022/10/31 04:33:17;;;;;;;19.33;11.10;;;;;;;12.31;89.70;95228.97;5031763;28;20202;-82
2022/10/31 04:35:46;;;;;;;20.43;12.30;;;;;;;12.36;88.84;95230.91;5031641;28;20203;-80
2022/10/31 04:38:12;;;;;;;21.93;12.53;;;;;;;12.10;91.00;95231.94;5033470;28;20191;-81
2022/10/31 04:40:39;;;;;;;23.60;13.33;;;;;;;12.00;91.09;95221.22;5018555;28;20543;-81
2022/10/31 04:43:06;;;;;;;23.07;12.37;;;;;;;11.92;92.41;95216.25;5030162;28;20547;-80
2022/10/31 04:45:33;;;;;;;26.87;13.43;;;;;;;12.11;92.27;95236.16;5032199;28;20187;-83
2022/10/31 04:48:00;;;;;;;25.73;13.87;;;;;;;12.24;91.31;95236.03;5031797;28;20569;-80
2022/10/31 04:50:26;;;;;;;26.27;15.00;;;;;;;12.39;90.58;95233.91;5031862;28;20183;-80
2022/10/31 04:52:55;;;;;;;27.10;16.13;;;;;;;12.56;89.16;95235.94;5031127;28;20203;-80
2022/10/31 04:55:21;;;;;;;31.20;16.93;;;;;;;12.66;88.44;95250.09;5030860;28;20203;-80
2022/10/31 04:57:50;;;;;;;46.47;19.73;;;;;;;12.71;87.99;95239.81;5031178;28;20190;-81
2022/10/31 05:00:20;;;;;;;38.90;20.47;;;;;;;12.80;87.47;95242.94;5031555;28;20269;-80
2022/10/31 05:02:47;;;;;;;41.20;21.57;;;;;;;12.81;87.47;95244.53;5031704;28;20187;-81
2022/10/31 05:05:15;;;;;;;49.97;22.13;;;;;;;12.93;86.99;95254.03;5031884;28;20209;-80
2022/10/31 05:07:45;;;;;;;46.97;26.97;;;;;;;12.92;87.33;95260.28;5031642;28;20199;-81
2022/10/31 05:10:16;;;;;;;60.20;29.50;;;;;;;12.84;87.39;95251.94;5031623;28;20198;-80
2022/10/31 05:12:48;;;;;;;55.73;26.43;;;;;;;12.95;87.01;95266.88;5030087;28;20205;-80
2022/10/31 05:15:15;;;;;;;51.97;24.20;;;;;;;12.99;86.82;95263.59;5022979;28;20234;-80
2022/10/31 05:17:42;;;;;;;40.30;21.93;;;;;;;13.01;86.59;95266.81;5031749;28;20696;-81
2022/10/31 05:20:10;;;;;;;40.17;21.17;;;;;;;12.89;86.33;95244.25;5031885;28;20312;-80
2022/10/31 05:22:36;;;;;;;35.17;21.97;;;;;;;12.95;86.51;95267.66;5032890;28;20290;-81
2022/10/31 05:25:04;;;;;;;41.27;22.80;;;;;;;12.44;88.12;95265.34;5032596;28;20618;-80
2022/10/31 05:27:32;;;;;;;47.27;23.53;;;;;;;11.53;93.26;95263.34;5033289;28;20194;-80
2022/10/31 05:29:59;;;;;;;41.40;23.70;;;;;;;11.03;97.46;95263.16;5024619;28;20187;-77
2022/10/31 05:32:25;;;;;;;49.50;24.97;;;;;;;11.13;98.22;95265.34;5031270;28;20662;-78
2022/10/31 05:34:52;;;;;;;63.00;34.93;;;;;;;11.27;97.89;95270.28;5030999;28;20665;-77
2022/10/31 05:37:19;;;;;;;67.20;36.33;;;;;;;11.47;96.08;95272.00;5025807;28;20194;-77
2022/10/31 05:39:46;;;;;;;64.57;34.40;;;;;;;11.68;94.93;95279.50;5031279;28;20226;-81
2022/10/31 05:42:13;;;;;;;54.83;32.97;;;;;;;11.82;93.83;95281.84;5031316;28;20681;-81
2022/10/31 05:44:41;;;;;;;56.60;31.83;;;;;;;11.86;93.51;95271.81;5018098;28;20230;-80
2022/10/31 05:47:08;;;;;;;57.47;29.33;;;;;;;12.01;92.75;95280.09;5000865;28;20277;-78
2022/10/31 05:49:35;;;;;;;49.30;28.60;;;;;;;12.13;92.26;95280.22;5029885;28;20187;-76
2022/10/31 05:52:02;;;;;;;55.20;28.73;;;;;;;12.25;91.73;95283.75;5030194;28;20253;-76
2022/10/31 05:54:28;;;;;;;52.57;30.97;;;;;;;12.30;91.40;95283.91;5026036;28;20199;-76
2022/10/31 05:56:55;;;;;;;68.13;30.87;;;;;;;12.40;91.03;95289.44;5028857;28;20195;-76
2022/10/31 05:59:22;;;;;;;47.60;27.30;;;;;;;12.37;90.70;95297.69;5026434;28;20269;-76
2022/10/31 06:01:50;;;;;;;58.87;28.53;;;;;;;12.08;92.05;95277.47;5028986;28;20654;-77
2022/10/31 06:04:17;;;;;;;53.17;26.73;;;;;;;11.93;93.20;95294.19;5029141;28;20194;-76
2022/10/31 06:06:43;;;;;;;48.77;22.23;;;;;;;11.82;94.49;95296.66;5030047;28;20595;-76
2022/10/31 06:09:10;;;;;;;39.00;21.13;;;;;;;11.84;94.28;95305.88;5024244;28;20641;-78
2022/10/31 06:11:37;;;;;;;33.87;19.60;;;;;;;11.94;93.81;95303.63;5024754;28;20279;-77
2022/10/31 06:14:04;;;;;;;32.43;18.40;;;;;;;12.06;93.23;95303.75;5033097;28;20202;-78
2022/10/31 06:16:31;;;;;;;35.17;18.43;;;;;;;12.16;92.80;95304.06;5033502;28;20661;-78
2022/10/31 06:18:59;;;;;;;28.07;18.23;;;;;;;12.18;92.69;95302.03;5033647;28;20198;-78
2022/10/31 06:21:26;;;;;;;45.70;17.80;;;;;;;12.37;91.80;95321.16;5032880;28;20191;-79
2022/10/31 06:23:53;;;;;;;37.60;16.47;;;;;;;12.41;90.87;95314.50;5030176;28;20199;-80
2022/10/31 06:26:20;;;;;;;29.10;15.93;;;;;;;12.48;90.04;95313.44;5027325;28;20724;-79
2022/10/31 06:28:47;;;;;;;25.50;15.10;;;;;;;12.53;89.73;95329.25;5032380;28;20198;-79
2022/10/31 06:31:13;;;;;;;25.20;14.43;;;;;;;12.27;90.94;95332.03;5033305;28;20622;-78
2022/10/31 06:33:42;;;;;;;23.80;14.07;;;;;;;12.00;92.52;95332.44;5033387;28;20199;-79
2022/10/31 06:36:10;;;;;;;30.03;15.10;;;;;;;11.97;94.39;95330.25;5032799;28;20685;-79
2022/10/31 06:38:38;;;;;;;26.47;15.00;;;;;;;12.05;94.00;95337.81;5032868;28;20203;-80
2022/10/31 06:41:05;;;;;;;28.83;16.43;;;;;;;12.15;93.51;95333.72;5031377;28;20219;-80
2022/10/31 06:43:33;;;;;;;28.57;15.30;;;;;;;12.32;92.71;95344.47;5031611;28;20225;-80
2022/10/31 06:46:04;;;;;;;23.90;15.47;;;;;;;12.39;92.32;95340.78;5031721;28;20234;-78
2022/10/31 06:48:31;;;;;;;31.70;14.70;;;;;;;12.44;91.39;95334.91;5033167;28;20221;-79
2022/10/31 06:50:59;;;;;;;24.00;15.77;;;;;;;12.19;92.92;95332.31;5032678;28;20187;-79
2022/10/31 06:53:29;;;;;;;25.70;15.73;;;;;;;12.10;93.97;95340.56;5032338;28;20276;-79
2022/10/31 06:55:56;;;;;;;26.23;16.07;;;;;;;12.20;93.71;95335.72;5032645;28;20202;-79
2022/10/31 06:58:23;;;;;;;27.83;15.70;;;;;;;12.27;92.90;95321.63;5011907;28;20206;-78
2022/10/31 07:01:02;;;;;;;28.97;15.30;;;;;;;12.52;92.40;95345.09;5021098;28;20588;-78
2022/10/31 07:03:29;;;;;;;31.57;15.10;;;;;;;12.75;90.84;95350.53;5029016;28;20205;-77
2022/10/31 07:05:57;;;;;;;33.67;18.47;;;;;;;12.82;90.59;95340.03;5031203;28;20210;-79
2022/10/31 07:08:24;;;;;;;30.20;16.77;;;;;;;12.94;89.88;95344.34;5029097;28;20296;-77
2022/10/31 07:10:55;;;;;;;30.67;16.43;;;;;;;13.06;89.02;95340.00;5031019;28;20186;-77
2022/10/31 07:13:25;;;;;;;28.70;15.93;;;;;;;13.20;88.69;95343.31;5030273;28;20215;-77
2022/10/31 07:15:53;;;;;;;30.70;16.20;;;;;;;13.24;88.35;95341.88;5031539;28;20195;-77
2022/10/31 07:18:20;;;;;;;28.53;16.33;;;;;;;13.44;87.30;95349.47;5026075;28;20187;-78
2022/10/31 07:20:47;;;;;;;23.30;16.10;;;;;;;13.56;86.41;95340.69;5031196;28;20233;-76
2022/10/31 07:23:14;;;;;;;32.93;16.37;;;;;;;13.58;86.04;95336.06;5031564;28;20207;-76
2022/10/31 07:25:41;;;;;;;28.30;15.70;;;;;;;13.77;85.37;95333.41;5025967;28;20198;-77
2022/10/31 07:28:10;;;;;;;28.23;16.27;;;;;;;13.75;84.86;95325.78;5031488;28;20198;-77
2022/10/31 07:30:38;;;;;;;25.30;15.60;;;;;;;13.75;84.83;95330.22;5031371;28;20203;-77
2022/10/31 07:33:06;;;;;;;26.33;16.87;;;;;;;13.21;87.33;95328.44;5031012;28;20195;-77
2022/10/31 07:35:34;;;;;;;29.63;17.83;;;;;;;12.70;90.53;95326.88;5031135;28;20201;-76
2022/10/31 07:38:08;;;;;;;29.47;16.77;;;;;;;12.80;91.33;95326.41;5031458;28;20190;-75
2022/10/31 07:40:35;;;;;;;37.27;18.47;;;;;;;12.98;90.84;95329.06;5028341;28;20792;-76
2022/10/31 07:43:02;;;;;;;27.80;16.00;;;;;;;13.12;90.10;95325.31;5030291;28;20195;-76
2022/10/31 07:45:30;;;;;;;28.43;16.90;;;;;;;13.38;89.61;95324.25;5028779;28;20187;-77
2022/10/31 07:47:57;;;;;;;33.70;17.33;;;;;;;13.50;88.38;95306.81;5030619;28;20191;-77
2022/10/31 07:50:26;;;;;;;31.83;17.20;;;;;;;13.83;87.31;95324.69;5031164;28;20195;-77
2022/10/31 07:53:00;;;;;;;32.00;18.10;;;;;;;14.00;86.06;95326.47;5031480;28;20202;-77
2022/10/31 07:55:27;;;;;;;36.80;17.27;;;;;;;14.17;85.29;95331.84;5029360;28;20226;-76
2022/10/31 07:57:58;;;;;;;48.93;16.87;;;;;;;14.31;85.45;95327.25;5030699;28;20209;-76
2022/10/31 08:00:26;;;;;;;32.20;16.60;;;;;;;14.39;85.10;95319.09;5023277;28;20223;-76
2022/10/31 08:02:59;;;;;;;36.53;17.37;;;;;;;14.23;85.37;95308.22;5031390;28;20201;-76
2022/10/31 08:05:26;;;;;;;31.73;16.90;;;;;;;14.14;86.73;95319.25;5029252;28;20237;-77
2022/10/31 08:07:54;;;;;;;31.07;17.00;;;;;;;14.27;86.71;95320.84;5030097;28;20708;-75
2022/10/31 08:10:21;;;;;;;34.63;17.47;;;;;;;14.32;86.12;95319.19;5028191;28;20249;-77
2022/10/31 08:12:48;;;;;;;34.47;17.17;;;;;;;14.60;84.82;95329.81;5030676;28;20721;-76
2022/10/31 08:15:14;;;;;;;32.03;17.70;;;;;;;14.81;83.94;95330.28;5030153;28;20203;-76
2022/10/31 08:17:41;;;;;;;32.17;18.00;;;;;;;15.00;83.65;95334.41;5031097;28;20305;-76
2022/10/31 08:20:10;;;;;;;27.13;16.87;;;;;;;15.04;82.26;95318.00;5024108;28;20223;-77
2022/10/31 08:22:37;;;;;;;34.03;17.27;;;;;;;15.30;81.46;95327.19;5029022;28;20207;-76
2022/10/31 08:25:04;;;;;;;25.07;16.07;;;;;;;15.55;80.88;95335.63;5030283;28;20199;-77
2022/10/31 08:27:31;;;;;;;31.07;15.83;;;;;;;15.69;80.18;95336.16;5030266;28;20198;-77
2022/10/31 08:29:58;;;;;;;34.00;15.93;;;;;;;15.71;80.22;95329.63;5029195;28;20199;-75
2022/10/31 08:32:25;;;;;;;32.57;16.30;;;;;;;15.46;81.31;95326.50;5030020;28;20321;-75
2022/10/31 08:34:52;;;;;;;31.07;16.23;;;;;;;15.33;81.94;95330.16;5029240;28;20191;-76
2022/10/31 08:37:20;;;;;;;28.77;16.00;;;;;;;15.29;81.28;95321.13;5030439;28;20206;-75
2022/10/31 08:39:47;;;;;;;27.63;15.60;;;;;;;15.33;82.15;95334.59;5028700;28;20191;-76
2022/10/31 08:42:14;;;;;;;20.53;13.97;;;;;;;15.33;81.99;95327.53;5027837;28;20205;-76
2022/10/31 08:44:41;;;;;;;26.57;14.10;;;;;;;15.53;81.10;95329.00;5025602;28;20230;-76
2022/10/31 08:47:16;;;;;;;30.37;14.90;;;;;;;15.66;81.10;95326.13;5029866;28;20199;-78
2022/10/31 08:49:43;;;;;;;24.17;14.47;;;;;;;15.84;80.22;95331.19;5028686;28;20285;-78
2022/10/31 08:52:09;;;;;;;21.73;13.73;;;;;;;16.04;79.63;95317.66;5030228;28;20186;-77
2022/10/31 08:54:38;;;;;;;26.67;13.73;;;;;;;16.30;78.70;95324.94;5030187;28;20195;-78
2022/10/31 08:57:04;;;;;;;19.67;13.43;;;;;;;16.32;78.02;95322.88;5029692;28;20202;-78
2022/10/31 08:59:31;;;;;;;32.70;13.67;;;;;;;16.36;78.33;95313.50;5030100;28;20673;-77
2022/10/31 09:01:58;;;;;;;25.13;13.27;;;;;;;16.96;76.53;95321.56;5025844;28;20219;-78
2022/10/31 09:04:25;;;;;;;27.17;13.37;;;;;;;17.78;72.78;95330.28;5028071;28;20201;-77
2022/10/31 09:06:52;;;;;;;22.47;11.90;;;;;;;18.61;68.40;95334.31;5025370;28;20198;-77
2022/10/31 09:09:19;;;;;;;23.77;12.45;;;;;;;19.45;65.87;95339.66;5026532;28;20202;-76
2022/10/31 09:11:47;;;;;;;24.55;11.43;;;;;;;20.16;62.65;95341.53;5026105;28;20194;-76
2022/10/31 09:14:14;;;;;;;20.33;11.75;;;;;;;20.78;58.60;95335.25;5029234;28;20195;-77
2022/10/31 09:16:41;;;;;;;20.65;12.15;;;;;;;21.30;57.40;95338.41;5028440;28;20210;-77
2022/10/31 09:19:07;;;;;;;25.77;12.60;;;;;;;22.00;55.17;95334.78;5026843;28;20201;-77
2022/10/31 09:21:34;;;;;;;18.05;11.85;;;;;;;22.72;53.91;95340.44;5026910;28;20222;-79
2022/10/31 09:24:01;;;;;;;20.75;12.35;;;;;;;23.34;50.37;95337.81;5026789;28;20195;-78
2022/10/31 09:26:28;;;;;;;22.92;12.13;;;;;;;23.82;48.91;95335.97;5028292;28;20654;-77
2022/10/31 09:29:01;;;;;;;22.83;12.05;;;;;;;24.39;48.32;95329.66;5027211;28;20214;-78
2022/10/31 09:31:28;;;;;;;18.20;11.10;;;;;;;25.21;46.61;95338.78;5027817;28;20202;-77
2022/10/31 09:33:55;;;;;;;36.25;12.55;;;;;;;25.93;43.72;95342.50;5027089;28;20210;-78
2022/10/31 09:36:22;;;;;;;35.40;13.13;;;;;;;26.43;42.22;95343.34;5028157;28;20658;-79
2022/10/31 09:38:57;;;;;;;20.88;11.10;;;;;;;26.92;41.09;95331.84;5028609;28;20218;-79
2022/10/31 09:41:33;;;;;;;32.50;11.75;;;;;;;27.30;38.51;95340.22;5029221;28;20229;-79
2022/10/31 09:44:12;;;;;;;22.65;9.00;;;;;;;27.27;39.36;95346.19;5027228;28;20225;-77
2022/10/31 09:46:49;;;;;;;17.38;7.38;;;;;;;27.08;37.99;95339.47;5029790;28;20187;-78
2022/10/31 09:49:41;;;;;;;10.68;7.38;;;;;;;26.26;39.12;95332.50;5031535;28;20194;-77
2022/10/31 09:52:14;;;;;;;21.67;8.70;;;;;;;25.23;41.87;95327.81;5032115;28;20311;-77
2022/10/31 09:54:45;;;;;;;14.32;8.55;;;;;;;25.80;40.55;95337.97;5031370;28;20205;-77
2022/10/31 09:57:17;;;;;;;16.92;7.40;;;;;;;26.35;39.76;95337.91;5033677;28;20573;-77
2022/10/31 09:59:47;;;;;;;18.23;8.20;;;;;;;27.29;38.29;95330.66;5034279;28;20206;-78
2022/10/31 10:02:19;;;;;;;16.95;9.55;;;;;;;28.21;37.40;95345.81;5031298;28;20225;-78
2022/10/31 10:04:54;;;;;;;17.63;9.00;;;;;;;28.86;35.03;95340.34;5031838;28;20210;-78
2022/10/31 10:07:31;;;;;;;22.98;9.80;;;;;;;29.45;34.66;95335.25;5028660;28;20676;-78
2022/10/31 10:09:58;;;;;;;17.17;8.52;;;;;;;29.43;33.52;95332.09;5033789;28;20657;-80
2022/10/31 10:12:41;;;;;;;11.38;6.28;;;;;;;29.09;33.06;95324.94;5030363;28;20553;-78
2022/10/31 10:15:26;;;;;;;14.80;5.95;;;;;;;29.20;33.23;95331.50;5027870;28;20681;-78
2022/10/31 10:18:01;;;;;;;15.13;6.25;;;;;;;29.63;32.52;95331.41;5031734;28;20187;-78
2022/10/31 10:20:37;;;;;;;18.58;6.47;;;;;;;29.85;31.95;95325.03;5029483;28;20260;-78
2022/10/31 10:23:23;;;;;;;9.88;6.28;;;;;;;29.66;31.29;95315.47;5023841;28;20230;-78
2022/10/31 10:26:02;;;;;;;16.90;6.30;;;;;;;29.49;33.08;95310.19;5028381;28;20190;-77
2022/10/31 10:28:38;;;;;;;13.82;5.88;;;;;;;29.54;32.26;95311.88;5030287;28;20190;-79
2022/10/31 10:31:09;;;;;;;14.23;5.60;;;;;;;29.99;30.92;95307.59;5032488;28;20186;-77
2022/10/31 10:33:41;;;;;;;13.55;4.30;;;;;;;29.90;30.15;95308.78;5032501;28;20203;-78
2022/10/31 10:36:14;;;;;;;11.57;3.83;;;;;;;29.99;30.34;95299.56;5033613;28;20183;-78
2022/10/31 10:38:58;;;;;;;10.93;4.72;;;;;;;30.35;30.13;95296.31;5030106;28;20195;-78
2022/10/31 10:41:29;;;;;;;11.50;5.32;;;;;;;30.70;29.91;95305.72;5028208;28;20219;-77
2022/10/31 10:43:56;;;;;;;28.70;7.53;;;;;;;31.07;29.05;95297.81;5030544;28;20226;-77
2022/10/31 10:49:19;;;;;;;15.48;5.30;;;;;;;31.21;29.22;95292.91;5032503;28;20194;-77
2022/10/31 10:51:52;;;;;;;12.75;5.50;;;;;;;31.34;29.75;95295.28;5027004;28;20198;-77
2022/10/31 10:54:42;;;;;;;12.93;5.00;;;;;;;31.51;28.51;95290.88;5032254;28;20191;-76
2022/10/31 10:57:32;;;;;;;22.98;5.88;;;;;;;31.86;28.20;95292.03;5015016;28;20219;-77
2022/10/31 11:00:03;;;;;;;14.13;4.88;;;;;;;31.78;27.15;95298.28;5030408;28;20189;-77
2022/10/31 11:02:33;;;;;;;12.55;4.53;;;;;;;31.93;27.55;95281.47;5023431;28;20311;-76
2022/10/31 11:05:14;;;;;;;10.90;4.85;;;;;;;32.24;27.55;95297.03;5021627;28;20666;-77
2022/10/31 11:07:41;;;;;;;11.93;4.65;;;;;;;32.67;26.87;95293.72;5024312;28;20194;-75
2022/10/31 11:10:14;;;;;;;15.10;5.70;;;;;;;32.36;26.29;95289.72;5018037;28;20203;-75
2022/10/31 11:12:43;;;;;;;9.80;4.90;;;;;;;31.54;27.71;95284.84;5020375;28;20206;-76
2022/10/31 11:15:21;;;;;;;18.75;5.75;;;;;;;31.69;28.32;95279.56;5017924;28;20199;-76
2022/10/31 11:17:55;;;;;;;10.77;4.53;;;;;;;31.68;27.96;95280.69;5026229;28;20183;-76
2022/10/31 11:20:31;;;;;;;17.42;5.00;;;;;;;32.05;28.16;95278.78;5028916;28;20948;-76
2022/10/31 11:23:04;;;;;;;17.92;5.35;;;;;;;32.40;27.07;95287.13;5025461;28;20202;-76
2022/10/31 11:25:31;;;;;;;11.80;4.70;;;;;;;31.99;28.26;95272.03;5029903;28;20197;-76
2022/10/31 11:28:02;;;;;;;18.10;7.35;;;;;;;32.18;26.89;95272.25;5030535;28;20199;-76
2022/10/31 11:30:30;;;;;;;12.68;7.03;;;;;;;32.61;26.86;95278.91;5029234;28;20198;-75
2022/10/31 11:32:59;;;;;;;20.13;8.75;;;;;;;32.91;26.38;95272.84;5030661;28;20191;-76
2022/10/31 11:35:26;;;;;;;19.70;8.13;;;;;;;33.10;25.64;95275.66;5028017;28;20218;-76
2022/10/31 11:37:58;;;;;;;14.32;6.05;;;;;;;32.72;25.69;95275.41;5030279;28;20190;-75